Time;durP1;ratioP1;P1;durP2;ratioP2;P2;SDS_P1;SDS_P2;PMS_P1;PMS_P2;Temp;Humidity;BMP_temperature;BMP_pressure;BME280_temperature;BME280_humidity;BME280_pressure;Samples;Min_cycle;Max_cycle;Signal;HPM_P1;HPM_P2
2022/11/27 00:01:20;;;;;;;14.90;7.63;;;1.90;99.90;;;;;;4969552;28;20038;-80
2022/11/27 00:03:46;;;;;;;15.75;7.50;;;1.80;99.90;;;;;;4984839;28;20126;-81
2022/11/27 00:06:17;;;;;;;12.23;7.90;;;1.80;99.90;;;;;;4985888;28;20026;-80
2022/11/27 00:08:44;;;;;;;10.70;6.88;;;1.80;99.90;;;;;;4985577;28;20034;-81
2022/11/27 00:11:13;;;;;;;9.93;6.43;;;1.80;99.90;;;;;;4976655;28;20030;-81
2022/11/27 00:13:39;;;;;;;9.88;6.15;;;1.70;99.90;;;;;;4983244;28;20031;-80
2022/11/27 00:16:06;;;;;;;9.07;6.22;;;1.70;99.90;;;;;;4991021;28;20141;-81
2022/11/27 00:18:32;;;;;;;14.25;7.13;;;1.60;99.90;;;;;;4939169;28;20672;-80
2022/11/27 00:21:06;;;;;;;11.07;6.32;;;1.60;99.90;;;;;;4986864;28;20038;-81
2022/11/27 00:23:33;;;;;;;8.32;6.45;;;1.50;99.90;;;;;;4991841;28;20054;-80
2022/11/27 00:25:59;;;;;;;11.15;6.93;;;1.50;99.90;;;;;;4955695;28;20049;-81
2022/11/27 00:28:24;;;;;;;14.63;7.32;;;1.50;99.90;;;;;;4953730;28;20039;-81
2022/11/27 00:30:50;;;;;;;10.02;6.30;;;1.60;99.90;;;;;;4939263;28;20080;-81
2022/11/27 00:33:16;;;;;;;13.10;6.47;;;1.60;99.90;;;;;;4983039;28;20034;-79
2022/11/27 00:35:42;;;;;;;13.50;6.25;;;1.60;99.90;;;;;;4956219;28;20176;-80
2022/11/27 00:38:08;;;;;;;11.30;6.25;;;1.60;99.90;;;;;;4989565;28;20030;-80
2022/11/27 00:40:34;;;;;;;8.45;6.13;;;1.60;99.90;;;;;;4994162;28;20023;-79
2022/11/27 00:43:00;;;;;;;11.10;6.43;;;1.50;99.90;;;;;;5000105;28;20041;-81
2022/11/27 00:45:27;;;;;;;8.63;5.35;;;1.50;99.90;;;;;;4996856;28;20594;-80
2022/11/27 00:47:53;;;;;;;10.57;6.10;;;1.50;99.90;;;;;;5013361;23;20046;-86
2022/11/27 00:50:18;;;;;;;9.63;5.80;;;1.50;99.90;;;;;;4952807;28;20483;-86
2022/11/27 00:52:44;;;;;;;10.13;6.00;;;1.40;99.90;;;;;;4977927;28;20038;-86
2022/11/27 00:55:11;;;;;;;11.45;5.93;;;1.40;99.90;;;;;;4939415;28;20047;-86
2022/11/27 00:57:37;;;;;;;11.02;7.05;;;1.40;99.90;;;;;;4988693;28;20041;-86
2022/11/27 01:00:05;;;;;;;13.18;7.55;;;1.40;99.90;;;;;;4976081;28;20027;-86
2022/11/27 01:02:31;;;;;;;13.40;8.23;;;1.40;99.90;;;;;;5008713;28;20109;-87
2022/11/27 01:04:57;;;;;;;10.93;6.95;;;1.40;99.90;;;;;;4975672;28;20126;-86
2022/11/27 01:07:24;;;;;;;7.95;5.00;;;1.30;99.90;;;;;;4963386;28;20027;-87
2022/11/27 01:09:50;;;;;;;8.55;5.38;;;1.40;99.90;;;;;;4975447;28;20121;-86
2022/11/27 01:12:16;;;;;;;10.73;5.45;;;1.40;99.90;;;;;;4953995;28;20125;-85
2022/11/27 01:14:41;;;;;;;8.18;4.80;;;1.40;99.90;;;;;;4974525;28;20360;-86
2022/11/27 01:17:07;;;;;;;12.68;5.32;;;1.40;99.90;;;;;;4990722;28;20034;-86
2022/11/27 01:19:33;;;;;;;12.13;5.43;;;1.50;99.90;;;;;;4972746;28;20065;-86
2022/11/27 01:21:59;;;;;;;9.77;5.28;;;1.40;99.90;;;;;;4981784;28;20673;-86
2022/11/27 01:24:24;;;;;;;9.27;4.90;;;1.40;99.90;;;;;;4992135;28;20121;-86
2022/11/27 01:26:50;;;;;;;60.80;7.40;;;1.30;99.90;;;;;;4944268;28;20038;-86
2022/11/27 01:29:16;;;;;;;7.82;5.30;;;1.30;99.90;;;;;;4993999;28;20038;-86
2022/11/27 01:31:42;;;;;;;7.70;4.40;;;1.20;99.90;;;;;;4948713;28;20030;-85
2022/11/27 01:34:13;;;;;;;12.50;5.60;;;1.20;99.90;;;;;;4964143;28;20050;-85
2022/11/27 01:36:40;;;;;;;7.50;4.93;;;1.20;99.90;;;;;;4987062;28;20018;-84
2022/11/27 01:39:06;;;;;;;7.15;4.72;;;1.20;99.90;;;;;;4976884;28;20033;-84
2022/11/27 01:41:39;;;;;;;6.03;4.60;;;1.20;99.90;;;;;;4980793;28;20046;-84
2022/11/27 01:44:23;;;;;;;24.13;5.57;;;1.20;99.90;;;;;;4977936;28;20471;-84
2022/11/27 01:46:51;;;;;;;7.55;4.70;;;1.10;99.90;;;;;;4989185;28;20517;-84
2022/11/27 01:49:41;;;;;;;10.30;5.35;;;1.00;99.90;;;;;;4959616;28;20058;-84
2022/11/27 01:52:12;;;;;;;5.65;4.47;;;1.00;99.90;;;;;;4956242;28;20058;-84
2022/11/27 01:54:50;;;;;;;6.18;4.70;;;1.00;99.90;;;;;;4956662;28;20109;-84
2022/11/27 01:57:23;;;;;;;7.88;4.57;;;1.00;99.90;;;;;;4940404;28;20053;-85
2022/11/27 01:59:52;;;;;;;6.25;4.57;;;1.00;99.90;;;;;;4971109;28;20035;-84
2022/11/27 02:02:18;;;;;;;7.00;4.90;;;1.10;99.90;;;;;;4959175;28;20026;-84
2022/11/27 02:04:43;;;;;;;6.43;4.70;;;1.10;99.90;;;;;;4962646;28;20586;-84
2022/11/27 02:07:09;;;;;;;9.45;5.45;;;1.00;99.90;;;;;;4955240;28;20031;-84
2022/11/27 02:09:35;;;;;;;8.68;5.00;;;1.00;99.90;;;;;;4959608;28;20511;-85
2022/11/27 02:12:26;;;;;;;7.00;5.30;;;1.00;99.90;;;;;;4953461;28;20129;-84
2022/11/27 02:15:15;;;;;;;12.93;5.97;;;1.00;99.90;;;;;;4972022;28;20027;-85
2022/11/27 02:18:03;;;;;;;7.15;5.13;;;1.10;99.90;;;;;;4952241;28;20027;-84
2022/11/27 02:20:55;;;;;;;47.15;6.28;;;1.00;99.90;;;;;;4954816;28;20041;-84
2022/11/27 02:23:45;;;;;;;10.65;5.20;;;1.00;99.90;;;;;;4972311;28;20316;-85
2022/11/27 02:26:30;;;;;;;27.50;4.00;;;1.10;99.90;;;;;;4939745;28;20034;-85
2022/11/27 02:29:04;;;;;;;11.25;4.22;;;1.00;99.90;;;;;;4942791;28;20031;-84
2022/11/27 02:31:39;;;;;;;8.05;3.88;;;1.00;99.90;;;;;;4980810;28;20085;-85
2022/11/27 02:34:27;;;;;;;5.93;3.80;;;0.90;99.90;;;;;;4960431;28;20110;-85
2022/11/27 02:37:14;;;;;;;4.53;3.42;;;0.90;99.90;;;;;;4913202;28;20038;-85
2022/11/27 02:40:03;;;;;;;6.20;4.00;;;0.80;99.90;;;;;;4974311;28;20027;-85
2022/11/27 02:42:35;;;;;;;23.70;4.38;;;0.90;99.90;;;;;;4955971;28;20495;-85
2022/11/27 02:45:18;;;;;;;9.95;3.40;;;0.70;99.90;;;;;;4973908;28;20034;-85
2022/11/27 02:47:46;;;;;;;4.20;3.60;;;0.60;99.90;;;;;;4969077;28;20026;-85
2022/11/27 02:50:20;;;;;;;8.68;3.63;;;0.50;99.90;;;;;;4973671;28;20050;-85
2022/11/27 02:52:48;;;;;;;22.55;4.72;;;0.50;99.90;;;;;;4957741;28;20053;-85
2022/11/27 02:55:19;;;;;;;13.93;4.15;;;0.50;99.90;;;;;;4961743;28;20035;-85
2022/11/27 02:57:46;;;;;;;6.57;3.53;;;0.40;99.90;;;;;;4998284;28;20018;-85
2022/11/27 03:00:12;;;;;;;6.80;3.88;;;0.40;99.90;;;;;;4975039;28;20652;-85
2022/11/27 03:02:48;;;;;;;9.80;3.97;;;0.40;99.90;;;;;;4980997;28;20515;-85
2022/11/27 03:05:19;;;;;;;7.78;3.85;;;0.50;99.90;;;;;;4964094;28;20713;-85
2022/11/27 03:07:58;;;;;;;3.83;3.30;;;0.40;99.90;;;;;;4952103;28;20101;-84
2022/11/27 03:10:43;;;;;;;4.43;3.30;;;0.40;99.90;;;;;;4945748;28;20041;-85
2022/11/27 03:13:08;;;;;;;8.32;4.22;;;0.40;99.90;;;;;;4969039;28;20043;-84
2022/11/27 03:15:54;;;;;;;5.18;3.40;;;0.40;99.90;;;;;;4978978;28;20089;-84
2022/11/27 03:18:30;;;;;;;6.00;3.80;;;0.40;99.90;;;;;;4983278;28;20084;-85
2022/11/27 03:21:08;;;;;;;5.15;3.60;;;0.30;99.90;;;;;;4972101;28;20026;-85
2022/11/27 03:23:34;;;;;;;6.47;3.63;;;0.30;99.90;;;;;;4964894;28;20495;-86
2022/11/27 03:25:59;;;;;;;19.42;4.03;;;0.40;99.90;;;;;;4950393;28;20282;-85
2022/11/27 03:28:27;;;;;;;5.25;4.15;;;0.30;99.90;;;;;;4969783;28;20070;-85
2022/11/27 03:30:53;;;;;;;5.40;3.75;;;0.20;99.90;;;;;;4952902;28;20486;-85
2022/11/27 03:33:20;;;;;;;5.88;3.78;;;0.20;99.90;;;;;;4954300;28;20034;-84
2022/11/27 03:35:45;;;;;;;5.10;4.07;;;0.20;99.90;;;;;;4960170;28;20031;-85
2022/11/27 03:38:11;;;;;;;4.30;3.80;;;0.20;99.90;;;;;;4972817;28;20126;-84
2022/11/27 03:41:04;;;;;;;5.38;4.00;;;0.20;99.90;;;;;;4981079;28;20129;-85
2022/11/27 03:43:36;;;;;;;6.05;3.78;;;0.30;99.90;;;;;;4973944;28;20034;-84
2022/11/27 03:46:16;;;;;;;8.65;4.13;;;0.20;99.90;;;;;;4956727;28;20034;-84
2022/11/27 03:48:58;;;;;;;4.60;3.50;;;0.20;99.90;;;;;;4960589;28;20065;-85
2022/11/27 03:51:32;;;;;;;16.67;4.60;;;0.20;99.90;;;;;;4964807;28;20034;-84
2022/11/27 03:54:09;;;;;;;11.77;3.70;;;0.20;99.90;;;;;;4952801;28;20045;-84
2022/11/27 03:56:46;;;;;;;8.93;4.50;;;0.20;99.90;;;;;;4958483;28;20490;-85
2022/11/27 03:59:21;;;;;;;8.10;4.05;;;0.20;99.90;;;;;;4972591;28;20030;-84
2022/11/27 04:01:47;;;;;;;7.55;4.47;;;0.30;99.90;;;;;;4968778;28;20632;-84
2022/11/27 04:04:13;;;;;;;29.55;4.07;;;0.30;99.90;;;;;;4975977;28;20074;-84
2022/11/27 04:06:39;;;;;;;6.53;3.22;;;0.30;99.90;;;;;;4968499;28;20384;-84
2022/11/27 04:09:05;;;;;;;13.98;3.67;;;0.30;99.90;;;;;;4964507;28;20110;-84
2022/11/27 04:11:31;;;;;;;4.32;3.45;;;0.30;99.90;;;;;;4978391;28;20041;-84
2022/11/27 04:13:58;;;;;;;18.70;4.60;;;0.30;99.90;;;;;;4953751;28;20173;-85
2022/11/27 04:16:24;;;;;;;54.80;5.18;;;0.30;99.90;;;;;;4968136;28;20093;-85
2022/11/27 04:18:49;;;;;;;11.10;4.15;;;0.20;99.90;;;;;;4955227;28;20034;-84
2022/11/27 04:21:15;;;;;;;10.48;3.97;;;0.20;99.90;;;;;;4966492;28;20038;-84
2022/11/27 04:23:42;;;;;;;13.88;4.13;;;0.30;99.90;;;;;;4982361;28;20113;-85
2022/11/27 04:26:08;;;;;;;6.97;4.00;;;0.40;99.90;;;;;;4940439;28;20084;-85
2022/11/27 04:28:34;;;;;;;10.63;4.18;;;0.40;99.90;;;;;;4967647;28;20037;-85
2022/11/27 04:31:00;;;;;;;34.58;4.82;;;0.50;99.90;;;;;;4978348;28;20415;-85
2022/11/27 04:33:26;;;;;;;9.85;3.90;;;0.40;99.90;;;;;;4968235;28;20471;-85
2022/11/27 04:35:52;;;;;;;8.63;4.43;;;0.40;99.90;;;;;;4963981;28;20038;-85
2022/11/27 04:38:19;;;;;;;7.97;4.78;;;0.50;99.90;;;;;;4958869;28;20036;-85
2022/11/27 04:40:45;;;;;;;15.40;4.63;;;0.50;99.90;;;;;;4973183;28;20031;-85
2022/11/27 04:43:11;;;;;;;7.15;3.85;;;0.60;99.90;;;;;;4956024;28;20029;-85
2022/11/27 04:45:38;;;;;;;8.50;4.38;;;0.60;99.90;;;;;;4956357;28;20521;-85
2022/11/27 04:48:04;;;;;;;7.05;3.75;;;0.50;99.90;;;;;;4946272;28;20094;-84
2022/11/27 04:50:30;;;;;;;20.67;4.45;;;0.50;99.90;;;;;;4953380;28;20101;-86
2022/11/27 04:52:56;;;;;;;29.45;5.10;;;0.50;99.90;;;;;;4987850;28;20483;-84
2022/11/27 04:55:22;;;;;;;17.67;4.50;;;0.50;99.90;;;;;;4970531;28;20035;-85
2022/11/27 04:57:48;;;;;;;7.82;3.97;;;0.50;99.90;;;;;;4971367;28;20081;-85
2022/11/27 05:00:14;;;;;;;33.92;6.15;;;0.60;99.90;;;;;;4987635;28;20026;-85
2022/11/27 05:02:40;;;;;;;20.45;4.88;;;0.60;99.90;;;;;;4997575;28;20035;-85
2022/11/27 05:05:06;;;;;;;7.13;4.82;;;0.50;99.90;;;;;;4966666;28;20603;-85
2022/11/27 05:07:32;;;;;;;7.22;5.00;;;0.50;99.90;;;;;;4963371;28;20050;-87
2022/11/27 05:09:57;;;;;;;6.88;4.70;;;0.50;99.90;;;;;;4971931;28;20137;-85
2022/11/27 05:12:23;;;;;;;12.48;4.85;;;0.60;99.90;;;;;;4938484;28;20061;-85
2022/11/27 05:14:49;;;;;;;6.72;4.35;;;0.60;99.90;;;;;;4933442;28;20435;-85
2022/11/27 05:17:15;;;;;;;12.93;5.20;;;0.50;99.90;;;;;;4973968;28;20443;-86
2022/11/27 05:19:41;;;;;;;7.53;5.00;;;0.50;99.90;;;;;;4971816;28;20034;-86
2022/11/27 05:22:07;;;;;;;7.53;5.05;;;0.50;99.90;;;;;;4989578;28;20096;-85
2022/11/27 05:24:33;;;;;;;5.88;4.10;;;0.60;99.90;;;;;;4970988;28;20114;-86
2022/11/27 05:26:59;;;;;;;13.80;4.90;;;0.60;99.90;;;;;;4973611;28;20057;-85
2022/11/27 05:29:25;;;;;;;39.85;5.20;;;0.60;99.90;;;;;;4984580;28;20139;-85
2022/11/27 05:31:51;;;;;;;64.35;6.00;;;0.60;99.90;;;;;;4988418;28;20039;-85
2022/11/27 05:34:17;;;;;;;4.60;3.53;;;0.60;99.90;;;;;;4966479;28;20126;-86
2022/11/27 05:36:43;;;;;;;16.17;4.72;;;0.60;99.90;;;;;;4985001;28;20637;-86
2022/11/27 05:39:09;;;;;;;50.97;6.10;;;0.70;99.90;;;;;;4967594;28;20031;-85
2022/11/27 05:41:37;;;;;;;4.72;3.17;;;0.70;99.90;;;;;;4966989;28;20033;-86
2022/11/27 05:44:04;;;;;;;7.25;4.15;;;0.60;99.90;;;;;;4971059;28;20058;-86
2022/11/27 05:46:29;;;;;;;7.60;4.10;;;0.70;99.90;;;;;;4976542;28;20644;-85
2022/11/27 05:48:55;;;;;;;6.72;4.30;;;0.60;99.90;;;;;;4958417;28;20045;-85
2022/11/27 05:51:21;;;;;;;14.18;4.50;;;0.60;99.90;;;;;;4923955;28;20027;-85
2022/11/27 05:53:47;;;;;;;10.02;4.60;;;0.60;99.90;;;;;;4952065;28;20065;-85
2022/11/27 05:56:16;;;;;;;7.57;4.53;;;0.50;99.90;;;;;;4936177;29;20036;-85
2022/11/27 05:58:43;;;;;;;15.55;5.38;;;0.60;99.90;;;;;;4943131;28;20034;-85
2022/11/27 06:01:11;;;;;;;11.57;5.32;;;0.60;99.90;;;;;;4952372;28;20023;-85
2022/11/27 06:03:40;;;;;;;18.38;5.28;;;0.60;99.90;;;;;;4954905;28;20121;-85
2022/11/27 06:06:12;;;;;;;18.88;5.88;;;0.60;99.90;;;;;;4951969;28;20170;-85
2022/11/27 06:08:39;;;;;;;11.50;4.55;;;0.60;99.90;;;;;;4955880;28;20037;-85
2022/11/27 06:11:18;;;;;;;25.05;5.43;;;0.60;99.90;;;;;;4951713;28;20139;-85
2022/11/27 06:13:45;;;;;;;9.80;4.75;;;0.60;99.90;;;;;;4952830;28;20086;-85
2022/11/27 06:16:18;;;;;;;7.93;4.72;;;0.60;99.90;;;;;;4963421;28;20066;-85
2022/11/27 06:18:47;;;;;;;6.40;4.28;;;0.60;99.90;;;;;;4945648;28;20035;-85
2022/11/27 06:21:13;;;;;;;6.90;3.97;;;0.60;99.90;;;;;;4949706;28;20131;-84
2022/11/27 06:23:41;;;;;;;6.47;4.65;;;0.60;99.90;;;;;;4928549;28;20031;-85
2022/11/27 06:26:20;;;;;;;11.43;6.70;;;0.60;99.90;;;;;;4963359;28;20043;-85
2022/11/27 06:28:48;;;;;;;13.70;6.85;;;0.70;99.90;;;;;;4971666;28;20027;-85
2022/11/27 06:31:17;;;;;;;11.63;6.80;;;0.70;99.90;;;;;;4954776;28;20105;-85
2022/11/27 06:33:43;;;;;;;14.10;6.05;;;0.70;99.90;;;;;;4954882;28;20055;-85
2022/11/27 06:36:09;;;;;;;20.08;6.57;;;0.70;99.90;;;;;;4949442;28;20054;-85
2022/11/27 06:38:36;;;;;;;9.65;5.85;;;0.80;99.90;;;;;;4972411;28;20715;-85
2022/11/27 06:41:03;;;;;;;11.27;6.35;;;0.80;99.90;;;;;;4966586;28;20026;-85
2022/11/27 06:43:29;;;;;;;13.43;6.20;;;0.80;99.90;;;;;;4939819;28;20091;-84
2022/11/27 06:45:59;;;;;;;8.75;5.93;;;0.80;99.90;;;;;;4951523;29;20039;-85
2022/11/27 06:48:25;;;;;;;9.07;5.30;;;0.80;99.90;;;;;;4953052;28;20037;-85
2022/11/27 06:50:51;;;;;;;14.07;6.28;;;0.80;99.90;;;;;;4944919;28;20042;-85
2022/11/27 06:53:17;;;;;;;12.77;6.53;;;0.80;99.90;;;;;;4955142;28;20122;-86
2022/11/27 06:55:42;;;;;;;20.25;6.75;;;0.80;99.90;;;;;;4961201;28;20105;-85
2022/11/27 06:58:08;;;;;;;23.38;11.02;;;0.80;99.90;;;;;;4954979;28;20732;-85
2022/11/27 07:00:34;;;;;;;15.77;10.55;;;0.80;99.90;;;;;;4912817;28;20059;-85
2022/11/27 07:03:00;;;;;;;11.73;7.03;;;0.80;99.90;;;;;;4959280;28;20043;-85
2022/11/27 07:05:25;;;;;;;10.13;6.28;;;0.80;99.90;;;;;;4957733;28;20121;-85
2022/11/27 07:07:51;;;;;;;10.65;5.90;;;0.80;99.90;;;;;;4954500;28;20034;-85
2022/11/27 07:10:17;;;;;;;10.13;6.13;;;0.80;99.90;;;;;;4953200;28;20126;-85
2022/11/27 07:12:43;;;;;;;13.25;6.22;;;0.80;99.90;;;;;;4958409;28;20170;-86
2022/11/27 07:15:09;;;;;;;13.02;6.25;;;0.80;99.90;;;;;;4952059;28;20104;-85
2022/11/27 07:17:34;;;;;;;10.20;5.63;;;0.90;99.90;;;;;;4946308;29;20031;-86
2022/11/27 07:20:00;;;;;;;18.20;6.55;;;0.90;99.90;;;;;;4920141;28;20036;-85
2022/11/27 07:22:26;;;;;;;10.95;5.72;;;0.90;99.90;;;;;;4935616;28;20034;-85
2022/11/27 07:24:54;;;;;;;9.68;6.07;;;0.90;99.90;;;;;;4937625;28;20027;-85
2022/11/27 07:27:20;;;;;;;15.55;5.88;;;1.00;99.90;;;;;;4934553;29;20039;-85
2022/11/27 07:29:45;;;;;;;11.73;6.70;;;1.00;99.90;;;;;;4951630;28;20411;-86
2022/11/27 07:32:11;;;;;;;10.95;5.57;;;0.90;99.90;;;;;;4952206;28;20022;-85
2022/11/27 07:34:37;;;;;;;11.93;6.45;;;0.90;99.90;;;;;;4934257;29;20038;-85
2022/11/27 07:37:03;;;;;;;15.10;6.32;;;0.90;99.90;;;;;;4934117;28;20170;-85
2022/11/27 07:39:29;;;;;;;11.48;6.25;;;0.80;99.90;;;;;;4953849;28;20039;-86
2022/11/27 07:41:54;;;;;;;10.25;6.47;;;0.70;99.90;;;;;;4941153;28;20035;-86
2022/11/27 07:44:20;;;;;;;11.93;6.93;;;0.80;99.90;;;;;;4946621;29;20035;-85
2022/11/27 07:46:46;;;;;;;9.25;6.00;;;0.80;99.90;;;;;;4958439;28;20062;-85
2022/11/27 07:49:12;;;;;;;8.10;4.90;;;0.70;99.90;;;;;;4978393;28;20034;-85
2022/11/27 07:51:38;;;;;;;9.35;5.18;;;0.70;99.90;;;;;;4972122;28;20085;-85
2022/11/27 07:54:04;;;;;;;8.55;5.40;;;0.80;99.90;;;;;;4978501;28;20098;-86
2022/11/27 07:56:29;;;;;;;11.40;7.07;;;0.80;99.90;;;;;;4956552;28;20451;-85
2022/11/27 07:58:56;;;;;;;16.42;7.07;;;0.90;99.90;;;;;;4972894;28;20544;-85
2022/11/27 08:01:23;;;;;;;9.90;6.35;;;1.00;99.90;;;;;;4988578;28;20039;-85
2022/11/27 08:03:49;;;;;;;13.95;6.78;;;1.00;99.90;;;;;;4965372;28;20026;-85
2022/11/27 08:06:20;;;;;;;10.40;5.90;;;1.00;99.90;;;;;;4976582;28;20408;-85
2022/11/27 08:08:47;;;;;;;12.00;7.03;;;1.00;99.90;;;;;;4973038;28;20038;-85
2022/11/27 08:11:22;;;;;;;10.07;6.35;;;1.10;99.90;;;;;;4939394;28;20039;-86
2022/11/27 08:13:48;;;;;;;10.57;6.43;;;1.10;99.90;;;;;;4982892;28;20038;-86
2022/11/27 08:16:14;;;;;;;11.25;6.22;;;1.10;99.90;;;;;;4981193;28;20126;-85
2022/11/27 08:18:40;;;;;;;12.95;7.25;;;1.10;99.90;;;;;;4959165;28;20118;-84
2022/11/27 08:21:07;;;;;;;10.90;6.93;;;1.10;99.90;;;;;;4951059;28;20398;-85
2022/11/27 08:23:33;;;;;;;11.60;6.40;;;1.00;99.90;;;;;;4981110;28;20030;-85
2022/11/27 08:25:59;;;;;;;12.25;6.35;;;1.00;99.90;;;;;;4984775;28;20038;-86
2022/11/27 08:28:24;;;;;;;9.70;5.53;;;1.00;99.90;;;;;;4967109;28;20037;-85
2022/11/27 08:31:01;;;;;;;13.45;6.35;;;1.00;99.90;;;;;;4968258;28;20034;-87
2022/11/27 08:33:28;;;;;;;11.25;5.93;;;1.10;99.90;;;;;;4973192;28;20129;-86
2022/11/27 08:35:54;;;;;;;11.85;6.35;;;1.10;99.90;;;;;;4979172;28;20026;-86
2022/11/27 08:38:20;;;;;;;14.90;6.53;;;1.20;99.90;;;;;;4960616;28;20038;-86
2022/11/27 08:40:59;;;;;;;10.20;6.20;;;1.20;99.90;;;;;;4971178;28;20050;-85
2022/11/27 08:43:26;;;;;;;9.40;5.68;;;1.10;99.90;;;;;;4991983;28;20061;-86
2022/11/27 08:45:52;;;;;;;10.20;6.32;;;1.10;99.90;;;;;;4966355;28;20061;-86
2022/11/27 08:48:18;;;;;;;11.20;6.05;;;1.10;99.90;;;;;;4975240;28;20034;-86
2022/11/27 08:50:45;;;;;;;10.43;6.53;;;1.20;99.90;;;;;;4952463;28;20038;-87
2022/11/27 08:53:11;;;;;;;11.98;6.30;;;1.10;99.90;;;;;;4971556;28;20084;-86
2022/11/27 08:55:37;;;;;;;11.52;6.63;;;1.30;99.90;;;;;;4969181;28;20527;-88
2022/11/27 08:58:04;;;;;;;12.30;6.78;;;1.30;99.90;;;;;;4976375;28;20101;-87
2022/11/27 09:00:31;;;;;;;12.50;6.93;;;1.40;99.90;;;;;;4962211;28;20471;-87
2022/11/27 09:03:01;;;;;;;11.70;6.80;;;1.40;99.90;;;;;;4962336;28;20025;-86
2022/11/27 09:05:28;;;;;;;12.93;6.43;;;1.40;99.90;;;;;;4986845;28;20539;-86
2022/11/27 09:07:54;;;;;;;11.23;6.72;;;1.40;99.90;;;;;;4976202;28;20121;-86
2022/11/27 09:10:21;;;;;;;12.50;6.55;;;1.50;99.90;;;;;;4964903;28;20034;-86
2022/11/27 09:12:48;;;;;;;13.50;6.70;;;1.50;99.90;;;;;;4974976;28;20487;-86
2022/11/27 09:15:14;;;;;;;13.30;7.07;;;1.50;99.90;;;;;;4981375;28;20560;-85
2022/11/27 09:17:40;;;;;;;11.82;6.55;;;1.40;99.90;;;;;;4951482;28;20027;-86
2022/11/27 09:20:07;;;;;;;13.77;6.88;;;1.40;99.90;;;;;;4958907;28;20589;-86
2022/11/27 09:22:33;;;;;;;12.65;6.50;;;1.40;99.90;;;;;;4996005;28;20490;-85
2022/11/27 09:24:59;;;;;;;14.70;6.57;;;1.40;99.90;;;;;;4978730;28;20031;-84
2022/11/27 09:27:26;;;;;;;11.43;6.50;;;1.30;99.90;;;;;;4941255;28;20031;-85
2022/11/27 09:29:52;;;;;;;13.20;6.35;;;1.40;99.90;;;;;;4987414;28;20042;-84
2022/11/27 09:32:18;;;;;;;9.50;5.97;;;1.40;99.90;;;;;;4978064;28;20549;-85
2022/11/27 09:34:44;;;;;;;10.35;5.35;;;1.50;99.90;;;;;;5002001;28;20034;-84
2022/11/27 09:37:10;;;;;;;10.65;5.95;;;1.60;99.90;;;;;;4971884;28;20058;-84
2022/11/27 09:39:36;;;;;;;14.00;7.40;;;1.70;99.90;;;;;;4975171;28;20062;-83
2022/11/27 09:42:04;;;;;;;11.02;6.53;;;1.50;99.90;;;;;;4956556;28;20565;-84
2022/11/27 09:44:38;;;;;;;11.30;6.22;;;1.50;99.90;;;;;;4959226;28;20049;-84
2022/11/27 09:47:23;;;;;;;10.75;6.38;;;1.50;99.90;;;;;;4975538;28;20030;-86
2022/11/27 09:50:03;;;;;;;11.77;5.72;;;1.50;99.90;;;;;;4958155;28;20042;-85
2022/11/27 09:52:49;;;;;;;11.45;6.55;;;1.50;99.90;;;;;;4966357;28;20034;-85
2022/11/27 09:55:37;;;;;;;12.05;5.82;;;1.60;99.90;;;;;;4984559;28;20403;-85
2022/11/27 09:58:37;;;;;;;10.25;6.25;;;1.60;99.90;;;;;;4959740;28;20061;-85
2022/11/27 10:01:16;;;;;;;12.40;5.90;;;1.70;99.90;;;;;;4958772;28;20049;-84
2022/11/27 10:03:43;;;;;;;13.75;6.75;;;1.80;99.90;;;;;;4974827;28;20049;-84
2022/11/27 10:06:27;;;;;;;14.90;7.03;;;1.80;99.90;;;;;;4992896;28;20033;-84
2022/11/27 10:09:29;;;;;;;12.75;7.07;;;1.80;99.90;;;;;;4999461;28;20091;-84
2022/11/27 10:12:07;;;;;;;10.45;6.47;;;1.80;99.90;;;;;;4972875;28;20134;-84
2022/11/27 10:14:59;;;;;;;13.45;6.38;;;1.90;99.90;;;;;;4951571;28;20092;-84
2022/11/27 10:17:34;;;;;;;13.00;6.70;;;1.90;99.90;;;;;;4971321;28;20126;-84
2022/11/27 10:20:27;;;;;;;13.40;6.53;;;1.90;99.90;;;;;;4986236;28;20093;-84
2022/11/27 10:23:01;;;;;;;11.95;6.57;;;2.00;99.90;;;;;;4972130;28;20031;-84
2022/11/27 10:25:52;;;;;;;12.82;6.35;;;2.10;99.90;;;;;;4950410;28;20034;-84
2022/11/27 10:28:43;;;;;;;10.82;5.93;;;2.20;99.90;;;;;;4951353;28;20558;-85
2022/11/27 10:31:18;;;;;;;12.55;6.57;;;2.30;99.90;;;;;;4971561;28;20037;-84
2022/11/27 10:33:53;;;;;;;12.75;6.53;;;2.40;99.90;;;;;;4965770;28;20030;-84
2022/11/27 10:36:39;;;;;;;;;;;2.40;99.90;;;;;;4985341;28;20034;-85
2022/11/27 10:39:14;;;;;;;13.02;6.88;;;2.40;99.90;;;;;;4953385;28;19909;-84
2022/11/27 10:41:56;;;;;;;11.77;6.18;;;2.40;99.90;;;;;;4972412;28;20026;-84
2022/11/27 10:44:32;;;;;;;11.82;6.10;;;2.50;99.90;;;;;;4953245;28;20034;-84
2022/11/27 10:47:02;;;;;;;11.38;6.63;;;2.50;99.90;;;;;;4961983;28;20018;-84
2022/11/27 10:49:29;;;;;;;10.13;5.72;;;2.40;99.90;;;;;;4957244;28;20058;-84
2022/11/27 10:51:54;;;;;;;11.48;6.15;;;2.40;99.90;;;;;;4968422;28;20474;-84
2022/11/27 10:54:34;;;;;;;12.63;6.43;;;2.50;99.90;;;;;;4957480;28;20147;-84
2022/11/27 10:57:19;;;;;;;9.85;6.30;;;2.50;99.90;;;;;;4966385;28;20031;-84
2022/11/27 11:00:10;;;;;;;8.98;6.20;;;2.60;99.90;;;;;;4995097;28;20526;-84
2022/11/27 11:02:38;;;;;;;10.07;6.72;;;2.70;99.90;;;;;;4931773;28;20603;-84
2022/11/27 11:05:22;;;;;;;10.27;6.32;;;2.70;99.90;;;;;;4986382;28;20034;-84
2022/11/27 11:08:13;;;;;;;10.82;6.75;;;2.70;99.90;;;;;;4983485;28;20037;-85
2022/11/27 11:10:58;;;;;;;10.52;6.68;;;2.60;99.90;;;;;;4990178;28;20547;-85
2022/11/27 11:13:40;;;;;;;12.10;6.53;;;2.70;99.90;;;;;;4951185;28;20034;-84
2022/11/27 11:16:21;;;;;;;12.32;6.32;;;2.80;99.90;;;;;;4978581;28;20035;-84
2022/11/27 11:18:50;;;;;;;10.18;6.68;;;2.90;99.90;;;;;;4965107;28;20030;-84
2022/11/27 11:21:25;;;;;;;20.45;12.93;;;2.90;99.90;;;;;;4977851;28;20036;-84
2022/11/27 11:24:17;;;;;;;12.80;7.03;;;3.00;99.90;;;;;;4984261;28;20053;-85
2022/11/27 11:26:47;;;;;;;11.88;6.57;;;3.00;99.90;;;;;;4969158;28;20080;-85
2022/11/27 11:29:40;;;;;;;9.98;6.57;;;3.10;99.90;;;;;;4961572;28;20037;-85
2022/11/27 11:32:24;;;;;;;11.60;6.57;;;3.10;99.90;;;;;;4965852;28;20039;-84
2022/11/27 11:34:58;;;;;;;11.68;6.40;;;3.20;99.90;;;;;;4986270;28;20125;-85
2022/11/27 11:37:33;;;;;;;12.05;7.60;;;3.10;99.90;;;;;;4972805;28;20034;-84
2022/11/27 11:40:20;;;;;;;11.88;6.38;;;3.10;99.90;;;;;;4968487;28;20038;-85
2022/11/27 11:42:57;;;;;;;12.02;6.72;;;3.10;99.90;;;;;;4971098;28;20057;-84
2022/11/27 11:45:29;;;;;;;11.23;6.82;;;3.00;99.90;;;;;;4956146;28;20037;-84
2022/11/27 11:48:00;;;;;;;10.95;6.68;;;3.00;99.90;;;;;;4987220;28;20033;-84
2022/11/27 11:50:32;;;;;;;11.98;6.32;;;3.00;99.90;;;;;;4957785;28;20133;-84
2022/11/27 11:53:00;;;;;;;17.52;8.02;;;2.90;99.90;;;;;;4972701;28;20416;-84
2022/11/27 11:55:58;;;;;;;12.80;7.53;;;2.90;99.90;;;;;;5005186;28;20042;-84
2022/11/27 11:58:39;;;;;;;12.05;6.40;;;2.90;99.90;;;;;;4989898;28;20053;-84
2022/11/27 12:01:16;;;;;;;12.95;7.35;;;2.90;99.90;;;;;;4972409;28;20030;-83
2022/11/27 12:04:10;;;;;;;13.30;7.60;;;2.90;99.90;;;;;;4994020;28;20116;-83
2022/11/27 12:07:23;;;;;;;14.18;7.97;;;2.90;99.90;;;;;;4988972;28;20030;-84
2022/11/27 12:10:03;;;;;;;12.38;7.45;;;2.90;99.90;;;;;;4983338;28;20039;-84
2022/11/27 12:12:55;;;;;;;10.50;6.53;;;2.80;99.90;;;;;;4988027;28;20022;-84
2022/11/27 12:16:17;;;;;;;12.38;6.55;;;2.80;99.90;;;;;;4988970;28;20076;-83
2022/11/27 12:19:20;;;;;;;13.13;7.97;;;2.80;99.90;;;;;;4932869;29;20031;-83
2022/11/27 12:21:55;;;;;;;16.10;8.55;;;2.70;99.90;;;;;;4941665;29;20158;-84
2022/11/27 12:24:48;;;;;;;15.18;8.20;;;2.70;99.90;;;;;;4966923;28;20068;-84
2022/11/27 12:27:25;;;;;;;13.13;7.10;;;2.80;99.90;;;;;;4985390;28;20041;-84
2022/11/27 12:30:13;;;;;;;14.77;7.57;;;2.70;99.90;;;;;;4988490;28;20041;-84
2022/11/27 12:32:56;;;;;;;15.43;7.20;;;2.70;99.90;;;;;;4976158;28;20133;-84
2022/11/27 12:35:43;;;;;;;14.43;8.05;;;2.70;99.90;;;;;;5006346;28;20088;-83
2022/11/27 12:38:31;;;;;;;12.40;7.88;;;2.70;99.90;;;;;;4993079;28;20037;-84
2022/11/27 12:41:18;;;;;;;12.30;7.03;;;2.70;99.90;;;;;;4993014;28;20030;-84
2022/11/27 12:43:54;;;;;;;14.82;8.00;;;2.70;99.90;;;;;;4971859;28;20054;-84
2022/11/27 12:46:32;;;;;;;12.95;8.05;;;2.80;99.90;;;;;;4983472;28;20185;-84
2022/11/27 12:49:04;;;;;;;13.35;7.53;;;2.80;99.90;;;;;;4972720;28;20053;-84
2022/11/27 12:51:36;;;;;;;13.70;7.85;;;2.90;99.90;;;;;;4996667;28;20041;-85
2022/11/27 12:54:18;;;;;;;13.60;8.00;;;2.80;99.90;;;;;;4976463;28;20037;-83
2022/11/27 12:56:49;;;;;;;13.10;8.05;;;2.90;99.90;;;;;;4977114;28;20577;-83
2022/11/27 12:59:44;;;;;;;11.75;7.53;;;3.00;99.90;;;;;;4952503;28;20035;-83
2022/11/27 13:02:39;;;;;;;14.63;8.15;;;3.10;99.90;;;;;;4987930;28;20037;-84
2022/11/27 13:05:27;;;;;;;12.23;7.72;;;3.00;99.90;;;;;;4984892;28;20851;-84
2022/11/27 13:07:59;;;;;;;15.38;8.30;;;3.00;99.90;;;;;;4972622;28;20480;-83
2022/11/27 13:10:34;;;;;;;16.08;8.32;;;3.00;99.90;;;;;;4988139;28;20045;-84
2022/11/27 13:13:29;;;;;;;12.38;8.13;;;3.00;99.90;;;;;;4990619;28;20034;-84
2022/11/27 13:16:03;;;;;;;13.35;7.05;;;3.00;99.90;;;;;;4976065;28;20030;-84